createdAt,value
2022-07-30T00:00:24.800Z,2.10
2022-07-30T00:02:53.272Z,2.15
2022-07-30T00:05:20.961Z,2.40
2022-07-30T00:07:48.361Z,2.53
2022-07-30T00:10:15.503Z,2.13
2022-07-30T00:12:42.929Z,1.80
2022-07-30T00:15:10.182Z,2.40
2022-07-30T00:17:37.181Z,2.60
2022-07-30T00:20:05.540Z,2.50
2022-07-30T00:22:32.715Z,2.83
2022-07-30T00:24:59.729Z,2.35
2022-07-30T00:27:26.932Z,3.35
2022-07-30T00:29:54.023Z,3.10
2022-07-30T00:32:21.571Z,2.63
2022-07-30T00:34:49.034Z,2.30
2022-07-30T00:37:16.284Z,2.78
2022-07-30T00:39:43.884Z,2.67
2022-07-30T00:42:11.092Z,3.30
2022-07-30T00:44:41.057Z,3.85
2022-07-30T00:47:08.505Z,4.78
2022-07-30T00:49:35.893Z,4.97
2022-07-30T00:52:03.833Z,5.72
2022-07-30T00:54:31.247Z,3.75
2022-07-30T00:56:59.065Z,3.30
2022-07-30T00:59:31.910Z,3.80
2022-07-30T01:02:01.903Z,3.70
2022-07-30T01:04:30.365Z,4.13
2022-07-30T01:06:58.210Z,4.35
2022-07-30T01:09:25.972Z,4.50
2022-07-30T01:11:53.140Z,4.13
2022-07-30T01:14:20.265Z,4.38
2022-07-30T01:16:48.073Z,4.18
2022-07-30T01:19:45.351Z,3.72
2022-07-30T01:22:31.041Z,3.75
2022-07-30T01:25:04.431Z,3.55
2022-07-30T01:28:13.354Z,3.47
2022-07-30T01:30:46.348Z,3.75
2022-07-30T01:35:47.153Z,3.88
2022-07-30T01:38:17.275Z,3.55
2022-07-30T01:40:45.990Z,4.07
2022-07-30T01:43:13.672Z,3.72
2022-07-30T01:45:44.315Z,3.92
2022-07-30T01:48:15.238Z,3.80
2022-07-30T01:50:48.068Z,3.20
2022-07-30T01:53:19.243Z,3.78
2022-07-30T01:55:48.482Z,3.80
2022-07-30T01:58:19.511Z,3.80
2022-07-30T02:00:50.875Z,3.35
2022-07-30T02:03:18.422Z,3.38
2022-07-30T02:05:52.549Z,3.40
2022-07-30T02:08:39.220Z,3.90
2022-07-30T02:11:16.609Z,3.30
2022-07-30T02:13:52.980Z,3.28
2022-07-30T02:16:36.337Z,3.03
2022-07-30T02:19:09.784Z,3.08
2022-07-30T02:21:52.734Z,2.60
2022-07-30T02:24:25.923Z,2.78
2022-07-30T02:26:58.399Z,2.75
2022-07-30T02:29:26.241Z,2.90
2022-07-30T02:31:56.546Z,2.75
2022-07-30T02:34:25.826Z,2.70
2022-07-30T02:36:54.884Z,2.45
2022-07-30T02:39:22.814Z,2.60
2022-07-30T02:41:50.936Z,3.00
2022-07-30T02:44:23.502Z,2.75
2022-07-30T02:46:52.557Z,3.05
2022-07-30T02:49:40.413Z,2.65
2022-07-30T02:52:13.232Z,2.60
2022-07-30T02:54:43.154Z,2.50
2022-07-30T02:57:10.977Z,2.40
2022-07-30T02:59:41.288Z,2.95
2022-07-30T03:02:11.906Z,3.00
2022-07-30T03:04:42.991Z,2.97
2022-07-30T03:07:11.211Z,3.17
2022-07-30T03:09:50.877Z,3.50
2022-07-30T03:12:19.854Z,3.33
2022-07-30T03:14:46.950Z,3.03
2022-07-30T03:17:16.013Z,3.28
2022-07-30T03:19:47.133Z,4.22
2022-07-30T03:22:17.230Z,3.90
2022-07-30T03:24:47.066Z,3.25
2022-07-30T03:27:16.221Z,3.95
2022-07-30T03:29:45.935Z,4.00
2022-07-30T03:32:15.020Z,3.60
2022-07-30T03:34:43.711Z,3.50
2022-07-30T03:37:11.829Z,4.40
2022-07-30T03:39:40.181Z,4.18
2022-07-30T03:42:08.123Z,3.30
2022-07-30T03:44:37.280Z,3.38
2022-07-30T03:47:07.295Z,4.05
2022-07-30T03:49:40.876Z,3.55
2022-07-30T03:52:10.494Z,3.80
2022-07-30T03:54:37.822Z,4.05
2022-07-30T03:57:27.506Z,2.95
2022-07-30T03:59:54.561Z,3.33
2022-07-30T04:02:22.573Z,3.10
2022-07-30T04:05:02.261Z,3.50
2022-07-30T04:07:29.350Z,2.90
2022-07-30T04:09:56.369Z,3.53
2022-07-30T04:12:43.810Z,3.05
2022-07-30T04:16:36.915Z,3.75
2022-07-30T04:18:02.803Z,3.17
2022-07-30T04:23:03.492Z,3.85
2022-07-30T04:25:32.108Z,3.80
2022-07-30T04:28:03.786Z,3.47
2022-07-30T04:30:35.009Z,3.65
2022-07-30T04:33:03.862Z,2.95
2022-07-30T04:35:58.953Z,3.13
2022-07-30T04:38:31.897Z,3.20
2022-07-30T04:40:59.002Z,3.13
2022-07-30T04:43:28.595Z,3.10
2022-07-30T04:45:55.629Z,3.30
2022-07-30T04:48:22.686Z,3.20
2022-07-30T04:50:59.989Z,3.35
2022-07-30T04:53:29.403Z,3.50
2022-07-30T04:56:01.426Z,2.97
2022-07-30T04:58:32.010Z,3.55
2022-07-30T05:01:00.385Z,3.60
2022-07-30T05:03:33.018Z,3.20
2022-07-30T05:06:00.817Z,3.92
2022-07-30T05:08:31.576Z,3.40
2022-07-30T05:11:02.433Z,3.72
2022-07-30T05:13:34.297Z,3.65
2022-07-30T05:16:06.310Z,2.88
2022-07-30T05:18:33.309Z,3.08
2022-07-30T05:21:00.386Z,3.05
2022-07-30T05:23:34.882Z,3.13
2022-07-30T05:26:11.755Z,2.58
2022-07-30T05:28:48.487Z,2.42
2022-07-30T05:31:20.073Z,2.60
2022-07-30T05:33:55.436Z,2.42
2022-07-30T05:36:26.104Z,2.28
2022-07-30T05:38:54.218Z,2.25
2022-07-30T05:41:32.792Z,2.08
2022-07-30T05:44:13.778Z,2.25
2022-07-30T05:46:41.650Z,2.95
2022-07-30T05:49:09.369Z,2.72
2022-07-30T05:51:36.529Z,2.65
2022-07-30T05:54:04.246Z,3.40
2022-07-30T05:56:34.189Z,3.60
2022-07-30T05:59:07.466Z,3.97
2022-07-30T06:02:10.008Z,2.90
2022-07-30T06:04:56.261Z,2.30
2022-07-30T06:07:24.002Z,3.30
2022-07-30T06:09:54.067Z,2.80
2022-07-30T06:12:21.131Z,2.92
2022-07-30T06:14:48.790Z,3.50
2022-07-30T06:17:22.872Z,2.42
2022-07-30T06:20:06.880Z,3.58
2022-07-30T06:22:45.786Z,3.58
2022-07-30T06:25:20.961Z,3.53
2022-07-30T06:27:48.287Z,3.50
2022-07-30T06:30:16.073Z,3.40
2022-07-30T06:32:45.683Z,3.60
2022-07-30T06:35:16.798Z,3.28
2022-07-30T06:37:59.561Z,2.85
2022-07-30T06:40:31.679Z,2.70
2022-07-30T06:43:04.360Z,2.90
2022-07-30T06:45:50.910Z,3.17
2022-07-30T06:48:23.650Z,3.28
2022-07-30T06:50:52.039Z,3.40
2022-07-30T06:53:19.198Z,3.00
2022-07-30T06:56:18.173Z,2.95
2022-07-30T06:58:52.840Z,3.22
2022-07-30T07:01:38.645Z,3.10
2022-07-30T07:04:05.872Z,3.05
2022-07-30T07:06:34.140Z,3.53
2022-07-30T07:09:01.729Z,2.95
2022-07-30T07:11:35.638Z,3.13
2022-07-30T07:14:07.653Z,2.63
2022-07-30T07:16:35.433Z,3.00
2022-07-30T07:20:01.336Z,2.92
2022-07-30T07:22:15.468Z,3.95
2022-07-30T07:24:44.084Z,3.70
2022-07-30T07:27:15.931Z,3.63
2022-07-30T07:30:04.644Z,3.90
2022-07-30T07:32:34.369Z,3.60
2022-07-30T07:35:02.039Z,2.95
2022-07-30T07:37:29.456Z,2.90
2022-07-30T07:39:56.611Z,2.65
2022-07-30T07:42:23.794Z,2.40
2022-07-30T07:44:51.468Z,2.35
2022-07-30T07:47:19.037Z,2.15
2022-07-30T07:50:00.539Z,2.08
2022-07-30T07:52:27.538Z,2.20
2022-07-30T07:54:55.041Z,1.88
2022-07-30T07:57:22.336Z,2.28
2022-07-30T07:59:51.562Z,1.92
2022-07-30T08:02:25.946Z,1.60
2022-07-30T08:05:00.771Z,2.40
2022-07-30T08:07:53.950Z,1.90
2022-07-30T08:10:21.195Z,2.03
2022-07-30T08:13:52.376Z,1.98
2022-07-30T08:16:14.716Z,1.80
2022-07-30T08:19:00.188Z,2.00
2022-07-30T08:21:31.545Z,1.90
2022-07-30T08:23:58.574Z,2.00
2022-07-30T08:26:25.757Z,1.73
2022-07-30T08:28:54.528Z,1.70
2022-07-30T08:31:22.240Z,3.30
2022-07-30T08:33:49.312Z,3.92
2022-07-30T08:36:16.717Z,2.70
2022-07-30T08:38:44.967Z,2.33
2022-07-30T08:41:12.699Z,3.05
2022-07-30T08:43:40.237Z,2.50
2022-07-30T08:46:11.098Z,3.35
2022-07-30T08:48:53.290Z,2.65
2022-07-30T08:51:22.549Z,2.28
2022-07-30T08:54:08.147Z,2.50
2022-07-30T08:56:36.028Z,2.28
2022-07-30T08:59:03.716Z,2.55
2022-07-30T09:01:31.387Z,2.78
2022-07-30T09:03:58.525Z,2.70
2022-07-30T09:06:27.841Z,2.70
2022-07-30T09:08:54.946Z,2.65
2022-07-30T09:11:22.780Z,2.55
2022-07-30T09:13:51.019Z,2.85
2022-07-30T09:16:24.284Z,2.75
2022-07-30T09:18:54.418Z,2.47
2022-07-30T09:21:23.449Z,2.50
2022-07-30T09:27:07.285Z,2.65
2022-07-30T09:29:37.030Z,2.60
2022-07-30T09:32:22.497Z,2.70
2022-07-30T09:35:23.144Z,2.30
2022-07-30T09:38:10.105Z,2.38
2022-07-30T09:40:57.313Z,2.50
2022-07-30T09:43:44.050Z,2.40
2022-07-30T09:46:19.234Z,2.40
2022-07-30T09:48:47.070Z,2.03
2022-07-30T09:54:01.509Z,1.80
2022-07-30T09:56:30.858Z,2.03
2022-07-30T09:58:59.579Z,2.33
2022-07-30T10:01:49.940Z,1.67
2022-07-30T10:04:34.130Z,2.08
2022-07-30T10:07:25.364Z,1.88
2022-07-30T10:09:59.807Z,2.08
2022-07-30T10:12:28.227Z,2.20
2022-07-30T10:14:58.292Z,2.10
2022-07-30T10:17:25.611Z,1.95
2022-07-30T10:20:10.448Z,2.10
2022-07-30T10:22:58.371Z,2.00
2022-07-30T10:25:55.734Z,1.92
2022-07-30T10:28:41.652Z,1.88
2022-07-30T10:31:48.104Z,1.83
2022-07-30T10:33:56.583Z,1.92
2022-07-30T10:36:24.992Z,2.42
2022-07-30T10:38:53.148Z,2.10
2022-07-30T10:41:42.245Z,2.15
2022-07-30T10:44:29.280Z,2.28
2022-07-30T10:47:07.072Z,2.50
2022-07-30T10:49:41.616Z,2.40
2022-07-30T10:52:11.160Z,2.75
2022-07-30T10:54:47.344Z,2.50
2022-07-30T10:57:23.113Z,2.63
2022-07-30T11:00:04.139Z,2.47
2022-07-30T11:02:35.688Z,2.78
2022-07-30T11:05:18.736Z,2.58
2022-07-30T11:08:35.691Z,3.00
2022-07-30T11:11:19.822Z,2.67
2022-07-30T11:13:54.286Z,3.05
2022-07-30T11:16:42.663Z,3.25
2022-07-30T11:19:55.475Z,3.08
2022-07-30T11:22:29.819Z,3.28
2022-07-30T11:27:36.340Z,3.00
2022-07-30T11:30:08.202Z,3.03
2022-07-30T11:32:36.793Z,3.33
2022-07-30T11:35:25.824Z,3.20
2022-07-30T11:38:10.166Z,3.45
2022-07-30T11:40:59.356Z,3.05
2022-07-30T11:43:35.854Z,3.53
2022-07-30T11:46:15.806Z,3.13
2022-07-30T11:49:05.201Z,3.00
2022-07-30T11:51:42.524Z,3.20
2022-07-30T11:54:11.042Z,2.88
2022-07-30T11:56:55.391Z,3.08
2022-07-30T11:59:22.793Z,2.83
2022-07-30T12:01:51.960Z,3.45
2022-07-30T12:04:19.609Z,2.90
2022-07-30T12:06:48.028Z,2.88
2022-07-30T12:09:29.151Z,2.88
2022-07-30T12:11:57.404Z,2.80
2022-07-30T12:14:24.966Z,2.33
2022-07-30T12:16:53.879Z,2.10
2022-07-30T12:19:21.000Z,2.30
2022-07-30T12:21:52.550Z,2.35
2022-07-30T12:24:25.920Z,1.95
2022-07-30T12:26:53.330Z,2.33
2022-07-30T12:29:20.627Z,2.30
2022-07-30T12:31:47.761Z,2.30
2022-07-30T12:34:25.818Z,2.13
2022-07-30T12:36:53.466Z,2.70
2022-07-30T12:39:27.348Z,2.40
2022-07-30T12:41:56.270Z,2.28
2022-07-30T12:44:41.667Z,2.50
2022-07-30T12:47:26.289Z,2.05
2022-07-30T12:49:54.779Z,2.38
2022-07-30T12:52:28.937Z,2.20
2022-07-30T12:55:12.348Z,2.10
2022-07-30T12:57:56.457Z,1.90
2022-07-30T13:00:25.623Z,1.90
2022-07-30T13:02:52.841Z,1.95
2022-07-30T13:05:20.184Z,1.92
2022-07-30T13:07:54.971Z,1.77
2022-07-30T13:10:23.452Z,1.50
2022-07-30T13:12:53.119Z,1.65
2022-07-30T13:15:22.359Z,1.67
2022-07-30T13:17:50.075Z,1.60
2022-07-30T13:20:18.137Z,1.40
2022-07-30T13:22:45.704Z,1.90
2022-07-30T13:25:13.158Z,1.50
2022-07-30T13:27:40.678Z,1.75
2022-07-30T13:30:08.777Z,1.65
2022-07-30T13:32:36.169Z,1.73
2022-07-30T13:35:03.993Z,1.60
2022-07-30T13:37:38.178Z,1.63
2022-07-30T13:40:07.030Z,1.90
2022-07-30T13:42:34.163Z,1.70
2022-07-30T13:45:01.380Z,1.40
2022-07-30T13:47:29.100Z,2.00
2022-07-30T13:49:56.037Z,1.67
2022-07-30T13:52:23.023Z,1.80
2022-07-30T13:54:52.507Z,1.80
2022-07-30T13:57:20.295Z,1.58
2022-07-30T13:59:47.334Z,1.70
2022-07-30T14:02:14.431Z,2.20
2022-07-30T14:04:41.395Z,2.17
2022-07-30T14:07:08.374Z,1.45
2022-07-30T14:09:35.472Z,1.73
2022-07-30T14:12:12.811Z,1.73
2022-07-30T14:14:39.867Z,1.90
2022-07-30T14:17:06.855Z,1.52
2022-07-30T14:19:33.953Z,1.50
2022-07-30T14:22:00.939Z,1.70
2022-07-30T14:24:27.993Z,1.38
2022-07-30T14:31:07.427Z,1.50
2022-07-30T14:33:34.422Z,1.63
2022-07-30T14:36:01.489Z,1.10
2022-07-30T14:38:28.437Z,1.50
2022-07-30T14:40:55.622Z,1.13
2022-07-30T14:43:24.903Z,1.50
2022-07-30T14:45:53.432Z,1.55
2022-07-30T14:48:20.655Z,1.35
2022-07-30T14:51:12.138Z,1.20
2022-07-30T14:53:34.938Z,1.15
2022-07-30T14:56:02.087Z,1.25
2022-07-30T14:58:29.126Z,1.35
2022-07-30T15:00:56.073Z,1.50
2022-07-30T15:03:23.485Z,1.38
2022-07-30T15:05:53.067Z,1.38
2022-07-30T15:08:20.485Z,1.10
2022-07-30T15:10:47.829Z,1.50
2022-07-30T15:13:15.979Z,1.15
2022-07-30T15:15:45.200Z,1.40
2022-07-30T15:18:13.550Z,1.10
2022-07-30T15:30:25.930Z,1.00
2022-07-30T15:35:21.639Z,1.10
2022-07-30T15:37:48.994Z,1.00
2022-07-30T15:40:16.036Z,0.70
2022-07-30T15:42:43.229Z,0.77
2022-07-30T15:45:18.701Z,0.60
2022-07-30T15:47:46.709Z,0.68
2022-07-30T15:50:13.944Z,0.63
2022-07-30T15:52:40.900Z,0.80
2022-07-30T15:55:08.227Z,0.90
2022-07-30T15:57:35.608Z,0.73
2022-07-30T16:00:03.893Z,0.80
2022-07-30T16:02:39.761Z,0.80
2022-07-30T16:05:13.234Z,0.65
2022-07-30T16:07:41.366Z,0.60
2022-07-30T16:10:09.539Z,0.80
2022-07-30T16:12:37.069Z,0.77
2022-07-30T16:15:04.477Z,0.60
2022-07-30T16:17:31.607Z,0.52
2022-07-30T16:19:59.761Z,0.90
2022-07-30T16:22:26.859Z,0.90
2022-07-30T16:24:53.835Z,0.80
2022-07-30T16:27:20.908Z,0.68
2022-07-30T16:29:48.226Z,0.88
2022-07-30T16:32:15.218Z,1.00
2022-07-30T16:34:42.160Z,0.60
2022-07-30T16:37:09.666Z,0.65
2022-07-30T16:39:36.711Z,0.50
2022-07-30T16:42:04.790Z,0.63
2022-07-30T16:44:34.145Z,0.90
2022-07-30T16:47:01.193Z,1.08
2022-07-30T16:49:28.745Z,0.70
2022-07-30T16:51:55.875Z,0.68
2022-07-30T16:54:23.000Z,0.50
2022-07-30T16:56:52.793Z,0.80
2022-07-30T16:59:21.026Z,0.60
2022-07-30T17:01:48.570Z,0.60
2022-07-30T17:04:15.825Z,0.80
2022-07-30T17:06:44.459Z,0.80
2022-07-30T17:09:16.058Z,0.70
2022-07-30T17:11:47.273Z,0.55
2022-07-30T17:14:19.630Z,0.65
2022-07-30T17:16:46.576Z,0.60
2022-07-30T17:19:13.575Z,0.75
2022-07-30T17:21:40.648Z,0.75
2022-07-30T17:24:11.870Z,0.82
2022-07-30T17:26:42.956Z,0.63
2022-07-30T17:29:15.208Z,0.80
2022-07-30T17:31:44.443Z,0.90
2022-07-30T17:34:14.194Z,0.60
2022-07-30T17:36:50.227Z,0.68
2022-07-30T17:40:19.309Z,0.77
2022-07-30T17:42:10.715Z,0.80
2022-07-30T17:44:39.354Z,0.90
2022-07-30T17:47:10.974Z,0.80
2022-07-30T17:49:41.037Z,0.70
2022-07-30T17:52:08.826Z,0.55
2022-07-30T17:54:35.923Z,0.80
2022-07-30T17:57:02.917Z,0.80
2022-07-30T17:59:29.989Z,0.70
2022-07-30T18:01:59.843Z,0.98
2022-07-30T18:04:27.332Z,0.60
2022-07-30T18:06:54.553Z,0.60
2022-07-30T18:09:21.780Z,0.80
2022-07-30T18:11:49.204Z,0.95
2022-07-30T18:14:16.635Z,0.60
2022-07-30T18:16:43.769Z,0.80
2022-07-30T18:19:22.854Z,0.80
2022-07-30T18:21:54.782Z,0.80
2022-07-30T18:24:24.523Z,0.80
2022-07-30T18:26:52.150Z,0.70
2022-07-30T18:29:19.180Z,1.10
2022-07-30T18:31:48.154Z,0.80
2022-07-30T18:34:15.320Z,0.80
2022-07-30T18:36:42.469Z,1.10
2022-07-30T18:39:09.512Z,0.70
2022-07-30T18:41:36.563Z,0.80
2022-07-30T18:44:03.702Z,0.80
2022-07-30T18:46:30.686Z,0.95
2022-07-30T18:49:01.055Z,0.88
2022-07-30T18:51:34.016Z,0.70
2022-07-30T18:54:01.141Z,0.80
2022-07-30T18:56:28.119Z,0.90
2022-07-30T18:58:55.077Z,0.85
2022-07-30T19:01:22.876Z,0.73
2022-07-30T19:03:50.149Z,0.88
2022-07-30T19:06:17.338Z,1.10
2022-07-30T19:08:48.488Z,1.00
2022-07-30T19:11:15.560Z,0.70
2022-07-30T19:13:42.562Z,0.70
2022-07-30T19:16:10.618Z,0.77
2022-07-30T19:18:37.608Z,1.02
2022-07-30T19:21:04.855Z,0.90
2022-07-30T19:23:32.120Z,0.80
2022-07-30T19:25:59.147Z,0.93
2022-07-30T19:28:26.861Z,1.13
2022-07-30T19:30:53.875Z,0.80
2022-07-30T19:33:20.923Z,0.88
2022-07-30T19:35:47.884Z,1.13
2022-07-30T19:38:22.209Z,1.08
2022-07-30T19:40:51.323Z,1.15
2022-07-30T19:43:23.803Z,0.85
2022-07-30T19:45:51.382Z,1.10
2022-07-30T19:48:28.393Z,0.80
2022-07-30T19:50:58.664Z,1.10
2022-07-30T19:53:26.275Z,1.23
2022-07-30T19:55:55.033Z,1.20
2022-07-30T19:58:22.283Z,1.00
2022-07-30T20:00:52.100Z,1.10
2022-07-30T20:03:25.483Z,1.00
2022-07-30T20:05:57.579Z,1.00
2022-07-30T20:08:27.679Z,0.90
2022-07-30T20:10:57.904Z,0.95
2022-07-30T20:13:44.058Z,1.17
2022-07-30T20:16:13.920Z,0.93
2022-07-30T20:18:42.961Z,1.52
2022-07-30T20:21:15.067Z,1.10
2022-07-30T20:23:42.873Z,1.17
2022-07-30T20:26:13.962Z,1.15
2022-07-30T20:31:20.470Z,1.10
2022-07-30T20:33:49.529Z,0.90
2022-07-30T20:36:18.378Z,1.00
2022-07-30T20:38:47.087Z,1.20
2022-07-30T20:41:14.659Z,1.23
2022-07-30T20:43:51.709Z,0.90
2022-07-30T20:46:23.254Z,0.90
2022-07-30T20:48:52.143Z,1.20
2022-07-30T20:51:19.367Z,0.95
2022-07-30T20:53:47.207Z,1.10
2022-07-30T20:56:19.358Z,1.02
2022-07-30T20:58:47.445Z,1.00
2022-07-30T21:01:17.687Z,1.00
2022-07-30T21:03:48.044Z,1.27
2022-07-30T21:06:16.429Z,1.50
2022-07-30T21:08:43.493Z,0.93
2022-07-30T21:11:12.600Z,1.20
2022-07-30T21:13:39.880Z,1.10
2022-07-30T21:16:15.489Z,1.30
2022-07-30T21:18:48.222Z,1.13
2022-07-30T21:21:28.670Z,1.20
2022-07-30T21:23:58.199Z,1.42
2022-07-30T21:26:27.979Z,1.00
2022-07-30T21:29:00.542Z,1.02
2022-07-30T21:32:11.427Z,1.20
2022-07-30T21:34:15.346Z,1.33
2022-07-30T21:36:43.452Z,1.10
2022-07-30T21:39:13.634Z,0.95
2022-07-30T21:41:41.354Z,1.20
2022-07-30T21:44:09.680Z,1.38
2022-07-30T21:46:39.924Z,1.20
2022-07-30T21:49:07.967Z,1.00
2022-07-30T21:51:35.890Z,1.10
2022-07-30T21:54:07.201Z,1.10
2022-07-30T21:56:35.108Z,1.35
2022-07-30T21:59:08.865Z,1.05
2022-07-30T22:01:37.925Z,1.27
2022-07-30T22:04:08.173Z,1.50
2022-07-30T22:06:38.391Z,1.10
2022-07-30T22:09:18.930Z,1.48
2022-07-30T22:11:56.156Z,1.30
2022-07-30T22:14:25.666Z,1.50
2022-07-30T22:16:53.280Z,1.40
2022-07-30T22:19:21.946Z,0.90
2022-07-30T22:21:50.949Z,1.42
2022-07-30T22:24:29.396Z,1.35
2022-07-30T22:27:09.770Z,1.27
2022-07-30T22:29:42.715Z,1.38
2022-07-30T22:32:10.398Z,1.33
2022-07-30T22:34:37.827Z,1.40
2022-07-30T22:37:04.823Z,1.27
2022-07-30T22:39:51.085Z,1.10
2022-07-30T22:42:24.598Z,1.60
2022-07-30T22:44:52.462Z,1.40
2022-07-30T22:47:50.217Z,1.52
2022-07-30T22:50:08.022Z,1.50
2022-07-30T22:52:39.762Z,1.35
2022-07-30T22:55:08.995Z,1.58
2022-07-30T22:57:37.802Z,1.92
2022-07-30T23:00:12.367Z,1.58
2022-07-30T23:02:42.335Z,1.60
2022-07-30T23:05:11.039Z,1.70
2022-07-30T23:07:41.126Z,1.40
2022-07-30T23:10:18.579Z,1.70
2022-07-30T23:12:51.231Z,1.58
2022-07-30T23:15:19.929Z,1.58
2022-07-30T23:17:47.777Z,1.40
2022-07-30T23:20:20.623Z,1.20
2022-07-30T23:22:47.936Z,1.42
2022-07-30T23:25:15.182Z,1.80
2022-07-30T23:27:42.589Z,2.03
2022-07-30T23:30:10.898Z,1.90
2022-07-30T23:32:38.359Z,1.70
2022-07-30T23:35:06.714Z,1.52
2022-07-30T23:37:48.476Z,1.67
2022-07-30T23:40:17.497Z,1.75
2022-07-30T23:42:44.537Z,1.77
2022-07-30T23:45:11.640Z,1.85
2022-07-30T23:48:02.464Z,1.42
2022-07-30T23:50:26.312Z,1.55
2022-07-30T23:52:53.288Z,1.83
2022-07-30T23:55:20.405Z,2.03
2022-07-30T23:57:47.366Z,1.80
